Time;durP1;ratioP1;P1;durP2;ratioP2;P2;SDS_P1;SDS_P2;PMS_P1;PMS_P2;Temp;Humidity;BMP_temperature;BMP_pressure;BME280_temperature;BME280_humidity;BME280_pressure;Samples;Min_cycle;Max_cycle;Signal;HPM_P1;HPM_P2
2022/05/29 00:01:13;;;;;;;8.13;2.40;;;;;;;10.96;66.38;98737.78;5005351;28;20034;-76
2022/05/29 00:03:38;;;;;;;7.35;2.45;;;;;;;10.93;67.03;98745.47;5004558;28;20042;-76
2022/05/29 00:06:05;;;;;;;4.90;2.10;;;;;;;11.00;66.76;98743.41;5005843;28;20072;-76
2022/05/29 00:08:32;;;;;;;6.18;2.42;;;;;;;11.04;67.02;98749.84;4989036;28;20034;-76
2022/05/29 00:10:59;;;;;;;7.57;2.92;;;;;;;10.53;66.42;98740.50;5003630;28;20023;-76
2022/05/29 00:13:24;;;;;;;5.53;1.90;;;;;;;10.93;66.63;98740.94;5007256;28;20028;-75
2022/05/29 00:15:50;;;;;;;8.07;2.15;;;;;;;10.88;66.66;98721.38;5007056;28;20038;-76
2022/05/29 00:18:15;;;;;;;6.43;2.20;;;;;;;11.03;65.64;98725.00;4991482;28;20478;-76
2022/05/29 00:20:44;;;;;;;6.88;2.28;;;;;;;10.98;66.14;98726.81;4992739;28;20040;-76
2022/05/29 00:23:10;;;;;;;6.28;1.80;;;;;;;10.70;66.76;98695.06;5009097;28;20080;-75
2022/05/29 00:25:35;;;;;;;5.85;1.73;;;;;;;10.78;66.35;98722.09;5005864;28;20034;-76
2022/05/29 00:28:00;;;;;;;4.85;2.47;;;;;;;10.71;66.97;98729.50;4991292;28;20429;-75
2022/05/29 00:30:25;;;;;;;4.90;2.40;;;;;;;10.23;67.99;98711.63;5009434;28;20466;-75
2022/05/29 00:32:51;;;;;;;5.55;2.47;;;;;;;10.26;66.98;98732.50;5009796;28;20065;-76
2022/05/29 00:35:16;;;;;;;9.77;3.30;;;;;;;9.77;68.37;98720.09;5012906;28;20470;-75
2022/05/29 00:37:42;;;;;;;4.88;2.17;;;;;;;10.14;68.88;98723.78;5008865;28;20045;-76
2022/05/29 00:40:41;;;;;;;5.20;2.80;;;;;;;10.41;67.71;98716.66;4990757;28;20088;-76
2022/05/29 00:43:07;;;;;;;11.82;2.88;;;;;;;10.56;67.42;98713.34;5001644;28;20084;-75
2022/05/29 00:45:43;;;;;;;5.15;2.30;;;;;;;9.78;67.31;98713.72;5005092;28;20041;-76
2022/05/29 00:48:14;;;;;;;7.30;2.35;;;;;;;8.87;70.55;98701.66;5007290;28;20532;-76
2022/05/29 00:50:40;;;;;;;6.75;2.45;;;;;;;8.42;72.54;98714.16;5008025;28;20045;-75
2022/05/29 00:53:05;;;;;;;6.93;2.53;;;;;;;8.22;73.51;98706.59;5006445;28;20088;-75
2022/05/29 00:55:31;;;;;;;8.60;2.80;;;;;;;7.82;74.12;98711.06;5010338;28;20485;-76
2022/05/29 00:58:03;;;;;;;13.35;3.65;;;;;;;7.97;73.50;98706.06;5004627;28;20033;-76
2022/05/29 01:00:31;;;;;;;6.35;2.58;;;;;;;7.73;75.26;98709.03;5010076;28;20441;-76
2022/05/29 01:02:58;;;;;;;8.30;2.50;;;;;;;8.27;73.48;98692.63;5009255;28;20029;-75
2022/05/29 01:05:26;;;;;;;6.90;2.85;;;;;;;9.34;70.61;98698.69;5010777;28;20524;-76
2022/05/29 01:08:02;;;;;;;4.07;2.17;;;;;;;8.98;70.21;98697.31;5007448;28;20440;-76
2022/05/29 01:10:45;;;;;;;8.02;2.80;;;;;;;8.75;71.11;98702.78;5008600;28;20037;-76
2022/05/29 01:13:36;;;;;;;4.82;2.58;;;;;;;8.41;71.78;98701.13;5004550;28;20033;-75
2022/05/29 01:16:16;;;;;;;5.65;2.45;;;;;;;9.36;71.48;98689.41;5003758;28;20153;-76
2022/05/29 01:18:55;;;;;;;5.63;2.28;;;;;;;10.15;69.45;98684.59;5007878;28;20044;-76
2022/05/29 01:21:49;;;;;;;4.55;2.40;;;;;;;10.29;67.81;98677.81;5008916;28;20018;-76
2022/05/29 01:24:41;;;;;;;7.60;2.92;;;;;;;10.24;68.74;98689.22;5016740;28;20026;-76
2022/05/29 01:27:39;;;;;;;5.47;2.33;;;;;;;10.14;68.83;98685.66;5005162;28;20026;-76
2022/05/29 01:30:10;;;;;;;6.20;2.35;;;;;;;10.24;68.13;98686.56;5005958;28;20121;-75
2022/05/29 01:32:42;;;;;;;6.07;2.22;;;;;;;10.22;68.61;98685.22;5007171;28;20034;-75
2022/05/29 01:35:22;;;;;;;3.83;2.58;;;;;;;10.37;68.50;98680.88;5007990;28;20038;-76
2022/05/29 01:37:55;;;;;;;4.30;2.53;;;;;;;10.40;67.64;98674.19;5006805;28;20026;-76
2022/05/29 01:40:33;;;;;;;7.13;2.45;;;;;;;10.45;67.85;98682.25;5009298;28;20371;-76
2022/05/29 01:43:10;;;;;;;5.35;2.22;;;;;;;10.50;67.85;98685.00;5007194;28;20418;-76
2022/05/29 01:45:55;;;;;;;4.97;2.63;;;;;;;10.23;68.30;98668.97;5003983;28;20034;-76
2022/05/29 01:48:49;;;;;;;3.20;2.08;;;;;;;10.24;68.26;98678.56;5007313;28;20044;-76
2022/05/29 01:51:18;;;;;;;2.63;2.33;;;;;;;9.91;68.92;98670.69;5008594;28;20030;-75
2022/05/29 01:53:49;;;;;;;6.15;2.30;;;;;;;10.04;69.27;98678.31;5008851;28;20181;-76
2022/05/29 01:56:22;;;;;;;10.35;2.47;;;;;;;10.13;68.66;98673.38;5007992;28;20048;-76
2022/05/29 01:58:54;;;;;;;5.47;2.40;;;;;;;9.73;69.85;98668.34;5008982;28;20041;-76
2022/05/29 02:01:23;;;;;;;8.88;2.80;;;;;;;9.87;69.86;98671.44;5007304;28;20060;-76
2022/05/29 02:03:51;;;;;;;4.90;2.70;;;;;;;10.02;69.37;98672.44;5006736;28;20070;-76
2022/05/29 02:06:27;;;;;;;4.55;2.40;;;;;;;9.79;69.63;98670.00;5005770;28;20017;-76
2022/05/29 02:09:09;;;;;;;13.20;2.88;;;;;;;9.60;69.81;98668.69;5007628;28;20117;-75
2022/05/29 02:11:35;;;;;;;7.07;2.63;;;;;;;9.49;71.50;98648.28;5004577;28;20038;-76
2022/05/29 02:14:06;;;;;;;12.70;2.58;;;;;;;9.43;70.13;98663.41;5006533;28;20030;-76
2022/05/29 02:16:54;;;;;;;6.07;2.80;;;;;;;9.98;69.99;98663.28;5008045;28;20038;-75
2022/05/29 02:19:33;;;;;;;7.65;2.15;;;;;;;10.11;69.57;98670.16;5006358;28;20121;-76
2022/05/29 02:22:03;;;;;;;7.43;2.47;;;;;;;10.01;70.43;98654.81;5008213;28;20041;-76
2022/05/29 02:24:35;;;;;;;7.75;2.95;;;;;;;10.02;70.03;98651.09;5006579;28;20041;-76
2022/05/29 02:27:15;;;;;;;4.70;2.53;;;;;;;9.98;69.67;98663.28;4975095;28;20377;-75
2022/05/29 02:29:42;;;;;;;12.20;3.17;;;;;;;10.20;69.90;98653.44;5013455;28;20182;-76
2022/05/29 02:32:36;;;;;;;6.75;2.78;;;;;;;10.12;69.45;98643.25;5009226;28;20030;-75
2022/05/29 02:35:21;;;;;;;9.35;2.75;;;;;;;10.16;70.06;98636.34;5007012;28;20029;-76
2022/05/29 02:37:53;;;;;;;6.70;2.70;;;;;;;9.93;70.83;98652.59;5004668;28;20044;-76
2022/05/29 02:40:29;;;;;;;4.20;2.70;;;;;;;10.13;70.05;98652.88;5008840;28;20701;-75
2022/05/29 02:43:04;;;;;;;7.05;2.38;;;;;;;10.12;70.00;98640.56;5007975;28;20512;-76
2022/05/29 02:45:37;;;;;;;7.82;2.83;;;;;;;10.10;70.11;98649.84;5005785;28;20037;-75
2022/05/29 02:48:16;;;;;;;8.43;2.95;;;;;;;10.05;69.97;98626.59;5010450;28;20103;-76
2022/05/29 02:50:57;;;;;;;5.38;2.53;;;;;;;10.13;70.51;98642.19;5007714;28;20153;-75
2022/05/29 02:53:24;;;;;;;6.10;2.90;;;;;;;10.21;70.06;98623.06;5005025;28;20715;-76
2022/05/29 02:55:49;;;;;;;10.07;3.00;;;;;;;10.08;70.79;98631.44;5006789;28;20037;-75
2022/05/29 02:58:20;;;;;;;5.45;2.85;;;;;;;10.04;70.27;98627.66;5004209;28;20034;-76
2022/05/29 03:01:04;;;;;;;10.35;3.03;;;;;;;10.12;70.71;98635.25;5008465;28;20025;-76
2022/05/29 03:03:38;;;;;;;5.82;2.55;;;;;;;10.46;69.14;98628.63;5009149;28;20108;-76
2022/05/29 03:06:25;;;;;;;8.32;3.38;;;;;;;10.45;69.56;98619.03;5007452;28;20032;-76
2022/05/29 03:09:22;;;;;;;6.15;2.90;;;;;;;10.09;70.89;98622.38;5004339;28;20036;-76
2022/05/29 03:11:47;;;;;;;6.28;3.38;;;;;;;10.27;70.00;98621.25;4998629;28;20100;-76
2022/05/29 03:14:22;;;;;;;9.00;3.30;;;;;;;10.19;70.30;98627.03;5006347;28;20049;-76
2022/05/29 03:17:11;;;;;;;7.35;3.28;;;;;;;10.21;69.93;98625.75;5021405;28;20053;-76
2022/05/29 03:20:08;;;;;;;8.20;3.00;;;;;;;9.95;70.84;98618.50;5006645;28;20418;-76
2022/05/29 03:22:55;;;;;;;12.45;3.20;;;;;;;10.34;70.05;98621.84;5000070;28;20393;-76
2022/05/29 03:25:38;;;;;;;13.23;3.75;;;;;;;9.89;71.25;98624.00;5005061;28;20508;-76
2022/05/29 03:28:12;;;;;;;8.77;4.32;;;;;;;9.88;71.45;98623.19;5004944;28;20061;-76
2022/05/29 03:30:40;;;;;;;6.57;3.72;;;;;;;9.97;71.39;98629.72;5005258;28;20022;-76
2022/05/29 03:33:09;;;;;;;8.52;3.35;;;;;;;9.64;72.99;98622.66;5009459;28;20128;-76
2022/05/29 03:35:44;;;;;;;9.38;3.00;;;;;;;9.59;72.60;98614.59;5004574;28;20029;-76
2022/05/29 03:38:10;;;;;;;10.82;3.63;;;;;;;9.48;73.73;98612.84;5001067;28;20483;-76
2022/05/29 03:40:35;;;;;;;8.35;3.38;;;;;;;9.99;71.71;98608.13;5006434;28;20125;-76
2022/05/29 03:43:01;;;;;;;7.07;3.33;;;;;;;10.06;72.25;98611.41;4989039;28;20033;-76
2022/05/29 03:45:27;;;;;;;5.72;3.80;;;;;;;8.98;75.09;98618.28;5006566;28;20030;-76
2022/05/29 03:47:52;;;;;;;19.25;4.85;;;;;;;9.08;75.55;98617.63;5008968;28;20075;-76
2022/05/29 03:50:20;;;;;;;11.43;4.35;;;;;;;9.88;72.02;98603.72;5006250;28;20417;-75
2022/05/29 03:52:46;;;;;;;8.23;3.22;;;;;;;10.09;72.35;98609.03;5031120;28;20143;-76
2022/05/29 03:55:13;;;;;;;8.88;3.85;;;;;;;9.53;74.74;98612.09;5011347;28;20076;-76
2022/05/29 03:57:38;;;;;;;7.35;4.57;;;;;;;9.66;73.16;98601.06;5023146;28;20474;-76
2022/05/29 04:00:05;;;;;;;8.95;3.38;;;;;;;10.15;72.02;98599.28;5010271;28;20045;-76
2022/05/29 04:02:31;;;;;;;7.28;3.72;;;;;;;9.92;72.89;98583.50;5010892;28;20266;-76
2022/05/29 04:04:56;;;;;;;9.20;3.80;;;;;;;9.94;72.10;98602.75;5006281;28;20044;-76
2022/05/29 04:12:03;;;;;;;3.97;2.67;;;;;;;10.27;72.31;98602.56;5010167;28;20496;-76
2022/05/29 04:12:58;;;;;;;6.68;3.05;;;;;;;10.08;72.90;98599.44;4999774;28;20042;-76
2022/05/29 04:15:24;;;;;;;9.45;3.78;;;;;;;9.83;73.44;98593.81;5010200;28;20037;-76
2022/05/29 04:17:49;;;;;;;11.77;3.92;;;;;;;9.48;73.59;98594.19;5008448;28;20188;-76
2022/05/29 04:20:15;;;;;;;12.73;4.72;;;;;;;9.63;72.89;98601.59;5009645;28;20528;-76
2022/05/29 04:22:40;;;;;;;12.15;4.15;;;;;;;9.38;74.06;98598.59;5008760;28;20079;-76
2022/05/29 04:25:06;;;;;;;8.68;4.22;;;;;;;10.23;72.19;98593.47;4993152;28;20366;-76
2022/05/29 04:27:32;;;;;;;10.25;3.60;;;;;;;9.69;74.88;98598.75;5007697;28;20025;-76
2022/05/29 04:29:57;;;;;;;9.02;3.60;;;;;;;10.14;73.19;98603.78;5004104;28;20048;-76
2022/05/29 04:35:07;;;;;;;8.68;4.72;;;;;;;9.41;74.74;98592.78;5007093;28;20037;-76
2022/05/29 04:37:32;;;;;;;11.55;3.97;;;;;;;10.15;72.83;98602.75;5010048;28;20113;-76
2022/05/29 04:39:57;;;;;;;11.18;4.10;;;;;;;10.43;71.94;98602.47;5005610;28;20141;-76
2022/05/29 04:42:23;;;;;;;11.57;3.80;;;;;;;10.44;71.90;98584.63;5008203;28;20030;-76
2022/05/29 04:44:48;;;;;;;13.60;4.55;;;;;;;10.38;72.17;98581.09;5002516;28;20032;-76
2022/05/29 04:47:14;;;;;;;9.98;4.05;;;;;;;10.23;72.46;98596.13;5008362;28;20064;-76
2022/05/29 04:49:39;;;;;;;9.15;4.57;;;;;;;9.63;75.56;98606.94;5006889;28;20030;-76
2022/05/29 04:52:09;;;;;;;8.80;3.92;;;;;;;10.30;72.52;98588.75;5007550;28;20036;-76
2022/05/29 04:54:37;;;;;;;10.13;4.18;;;;;;;9.81;73.93;98595.94;5006753;28;20041;-76
2022/05/29 04:57:04;;;;;;;10.25;3.65;;;;;;;10.33;72.79;98586.38;5007065;28;20069;-76
2022/05/29 04:59:29;;;;;;;10.90;3.83;;;;;;;10.69;72.13;98592.00;5009155;28;20041;-76
2022/05/29 05:01:58;;;;;;;9.80;4.35;;;;;;;10.80;72.04;98589.16;5006018;28;20476;-76
2022/05/29 05:04:24;;;;;;;10.35;4.03;;;;;;;10.83;70.82;98578.00;5011760;28;20512;-76
2022/05/29 05:06:49;;;;;;;8.88;4.00;;;;;;;10.73;71.74;98588.56;5006452;28;20026;-76
2022/05/29 05:09:14;;;;;;;4.32;3.78;;;;;;;10.74;71.89;98582.19;5006891;28;20037;-76
2022/05/29 05:11:40;;;;;;;10.40;3.72;;;;;;;10.73;71.07;98553.88;5009622;28;20042;-76
2022/05/29 05:14:05;;;;;;;10.60;3.80;;;;;;;10.74;71.23;98563.50;5008363;28;20091;-76
2022/05/29 05:16:30;;;;;;;8.35;3.10;;;;;;;10.87;70.43;98554.25;5006997;28;20034;-76
2022/05/29 05:18:56;;;;;;;7.47;3.65;;;;;;;10.97;71.23;98573.00;5009668;28;20034;-76
2022/05/29 05:21:21;;;;;;;7.45;4.18;;;;;;;11.04;71.24;98576.25;5007906;28;20091;-76
2022/05/29 05:23:47;;;;;;;14.07;3.85;;;;;;;11.06;70.22;98582.13;5010462;28;20034;-76
2022/05/29 05:26:13;;;;;;;11.15;4.03;;;;;;;11.01;71.14;98580.22;5011988;28;20460;-76
2022/05/29 05:28:39;;;;;;;6.20;3.65;;;;;;;10.86;71.61;98566.78;4991877;28;20086;-76
2022/05/29 05:31:04;;;;;;;8.93;5.43;;;;;;;10.98;70.96;98577.28;5008186;28;20030;-76
2022/05/29 05:33:30;;;;;;;13.68;5.35;;;;;;;10.93;70.65;98582.56;5008284;28;20033;-76
2022/05/29 05:35:56;;;;;;;10.85;3.53;;;;;;;10.89;71.00;98570.81;5009305;28;20061;-76
2022/05/29 05:38:21;;;;;;;13.43;4.10;;;;;;;11.05;70.48;98575.19;5002818;28;20500;-76
2022/05/29 05:40:47;;;;;;;8.82;3.58;;;;;;;11.03;70.34;98575.44;5007049;28;20041;-76
2022/05/29 05:43:12;;;;;;;13.55;3.88;;;;;;;11.02;71.23;98581.03;5008390;28;20129;-76
2022/05/29 05:45:41;;;;;;;11.40;4.20;;;;;;;11.14;70.79;98565.59;5001868;28;20050;-76
2022/05/29 05:48:07;;;;;;;13.98;5.43;;;;;;;11.19;71.04;98582.47;5005859;28;20029;-76
2022/05/29 05:50:33;;;;;;;13.00;4.00;;;;;;;11.22;70.57;98579.31;5007914;28;20045;-76
2022/05/29 05:52:58;;;;;;;6.90;4.45;;;;;;;11.27;70.63;98575.84;5007579;28;20033;-76
2022/05/29 05:55:24;;;;;;;14.43;5.63;;;;;;;11.20;70.79;98580.63;5010808;28;20394;-76
2022/05/29 05:57:49;;;;;;;8.05;4.07;;;;;;;11.30;70.47;98578.81;5011356;28;20041;-76
2022/05/29 06:00:15;;;;;;;14.45;4.63;;;;;;;11.06;71.27;98568.78;5010031;28;20366;-76
2022/05/29 06:02:42;;;;;;;6.55;4.05;;;;;;;11.16;71.96;98574.97;5023258;28;20040;-76
2022/05/29 06:05:09;;;;;;;8.93;4.50;;;;;;;11.37;71.15;98586.59;5013288;28;20038;-76
2022/05/29 06:07:35;;;;;;;9.75;4.28;;;;;;;11.19;71.11;98563.78;5011897;28;20021;-76
2022/05/29 06:10:00;;;;;;;13.48;4.40;;;;;;;11.33;70.69;98578.28;5005169;28;20083;-76
2022/05/29 06:12:25;;;;;;;11.20;4.45;;;;;;;11.47;69.87;98583.97;5003441;28;20401;-76
2022/05/29 06:14:51;;;;;;;8.25;4.45;;;;;;;11.54;70.34;98581.03;5013683;28;20029;-76
2022/05/29 06:17:16;;;;;;;8.20;3.80;;;;;;;11.50;69.95;98583.44;5008857;28;20466;-76
2022/05/29 06:19:41;;;;;;;7.00;4.07;;;;;;;11.43;70.61;98577.53;5007397;28;20042;-76
2022/05/29 06:22:07;;;;;;;7.78;3.97;;;;;;;11.54;69.91;98563.16;5007291;28;20030;-76
2022/05/29 06:24:33;;;;;;;6.32;3.92;;;;;;;11.60;69.94;98567.44;5004755;28;20087;-76
2022/05/29 06:26:59;;;;;;;11.38;4.30;;;;;;;11.70;70.59;98564.03;5006316;28;20152;-76
2022/05/29 06:29:24;;;;;;;9.77;4.50;;;;;;;11.53;70.51;98555.41;5004004;28;20125;-76
2022/05/29 06:31:50;;;;;;;6.28;4.35;;;;;;;11.77;69.73;98564.59;5007448;28;20034;-76
2022/05/29 06:34:15;;;;;;;8.52;4.13;;;;;;;11.67;70.12;98554.66;5007766;28;20026;-76
2022/05/29 06:36:41;;;;;;;8.10;4.30;;;;;;;11.90;69.33;98572.13;5005215;28;20477;-76
2022/05/29 06:39:06;;;;;;;8.80;4.15;;;;;;;11.92;69.45;98568.13;5006270;28;20060;-76
2022/05/29 06:41:33;;;;;;;9.25;4.47;;;;;;;11.91;69.58;98571.06;5006382;28;20041;-76
2022/05/29 06:43:59;;;;;;;5.65;3.72;;;;;;;12.07;69.05;98569.22;5006809;28;20038;-76
2022/05/29 06:46:24;;;;;;;15.88;4.93;;;;;;;11.73;69.80;98558.97;5003093;28;20083;-76
2022/05/29 06:48:49;;;;;;;10.27;4.68;;;;;;;11.90;69.04;98556.09;5006592;28;20032;-76
2022/05/29 06:51:19;;;;;;;16.27;5.57;;;;;;;11.81;69.33;98579.88;5007343;28;20022;-76
2022/05/29 06:53:45;;;;;;;9.45;4.03;;;;;;;11.64;69.28;98571.19;5005320;28;20058;-76
2022/05/29 06:56:10;;;;;;;16.10;5.70;;;;;;;11.66;69.11;98568.28;5007776;28;20060;-76
2022/05/29 06:58:36;;;;;;;14.52;5.30;;;;;;;11.54;69.46;98562.34;5002297;28;20449;-76
2022/05/29 07:09:18;;;;;;;11.20;4.68;;;;;;;11.83;69.02;98572.38;5007386;28;20044;-76
2022/05/29 07:11:47;;;;;;;9.52;4.35;;;;;;;11.98;68.32;98569.75;5024830;28;20471;-77
2022/05/29 07:14:12;;;;;;;17.83;4.78;;;;;;;12.08;68.04;98562.81;5000860;28;20083;-76
2022/05/29 07:16:38;;;;;;;11.65;4.22;;;;;;;12.11;67.93;98565.75;5001425;28;20042;-76
2022/05/29 07:19:04;;;;;;;12.02;4.35;;;;;;;12.20;67.93;98574.88;5002903;28;20036;-77
2022/05/29 07:21:33;;;;;;;9.70;4.13;;;;;;;12.28;67.23;98554.78;5003510;28;20122;-77
2022/05/29 07:23:59;;;;;;;10.07;4.43;;;;;;;12.36;67.59;98562.31;5009661;28;20030;-77
2022/05/29 07:26:25;;;;;;;10.98;4.55;;;;;;;12.41;68.92;98573.00;5005711;28;20104;-77
2022/05/29 07:28:51;;;;;;;5.90;4.03;;;;;;;12.22;67.03;98537.13;5009653;28;20033;-76
2022/05/29 07:31:16;;;;;;;8.05;3.97;;;;;;;12.30;67.52;98556.13;5008983;28;20033;-76
2022/05/29 07:33:41;;;;;;;8.73;4.03;;;;;;;12.15;67.76;98568.69;5009002;28;20080;-76
2022/05/29 07:36:11;;;;;;;10.82;3.95;;;;;;;12.35;66.97;98558.03;5009387;28;20076;-77
2022/05/29 07:38:37;;;;;;;10.93;3.67;;;;;;;12.54;66.76;98567.13;5004759;28;20394;-77
2022/05/29 07:43:18;;;;;;;12.60;4.82;;;;;;;12.59;67.03;98565.25;5009821;28;20030;-77
2022/05/29 07:43:48;;;;;;;10.27;3.75;;;;;;;12.52;66.88;98562.03;5008114;28;20548;-77
2022/05/29 07:46:14;;;;;;;8.13;3.92;;;;;;;12.47;66.70;98562.03;5008652;28;20042;-77
2022/05/29 07:48:39;;;;;;;6.32;3.75;;;;;;;12.48;66.53;98552.13;4989344;28;20431;-77
2022/05/29 07:51:05;;;;;;;8.32;3.42;;;;;;;12.55;66.87;98571.41;5010875;28;20040;-77
2022/05/29 07:53:30;;;;;;;10.25;3.95;;;;;;;12.41;66.92;98560.44;5012879;28;20034;-76
2022/05/29 07:55:55;;;;;;;5.78;3.53;;;;;;;12.61;66.04;98565.00;4992087;28;20034;-77
2022/05/29 07:58:21;;;;;;;8.38;4.18;;;;;;;12.66;65.79;98565.00;5008376;28;20030;-77
2022/05/29 08:00:46;;;;;;;9.15;3.88;;;;;;;12.63;66.48;98568.19;5008410;28;20393;-76
2022/05/29 08:03:11;;;;;;;11.18;3.72;;;;;;;12.75;65.39;98566.84;5004677;28;20029;-76
2022/05/29 08:05:38;;;;;;;9.75;3.17;;;;;;;12.66;65.76;98559.63;5008914;28;20044;-77
2022/05/29 08:08:08;;;;;;;12.43;4.10;;;;;;;12.61;66.09;98562.31;5007902;28;20034;-76
2022/05/29 08:10:35;;;;;;;9.45;3.40;;;;;;;12.73;66.30;98570.88;5007064;28;20030;-76
2022/05/29 08:13:00;;;;;;;7.78;3.35;;;;;;;12.73;65.88;98571.66;5006976;28;20037;-76
2022/05/29 08:15:25;;;;;;;9.52;3.60;;;;;;;12.82;65.33;98563.13;5010718;28;20087;-76
2022/05/29 08:17:51;;;;;;;4.65;3.10;;;;;;;12.88;65.68;98562.03;5005262;28;20506;-77
2022/05/29 08:20:17;;;;;;;10.68;3.25;;;;;;;12.87;65.65;98544.34;5006458;28;20034;-77
2022/05/29 08:22:42;;;;;;;10.20;4.18;;;;;;;13.09;65.38;98564.44;4993353;28;20084;-77
2022/05/29 08:30:41;;;;;;;12.80;3.40;;;;;;;13.06;65.48;98556.16;5010245;28;20088;-76
2022/05/29 08:33:13;;;;;;;12.25;3.05;;;;;;;12.96;64.13;98562.28;5008018;28;20057;-76
2022/05/29 08:35:42;;;;;;;12.52;3.30;;;;;;;13.02;64.11;98566.56;5008495;28;20022;-77
2022/05/29 08:38:09;;;;;;;8.02;3.30;;;;;;;12.74;64.58;98553.72;5008598;28;20040;-77
2022/05/29 08:40:43;;;;;;;9.55;3.42;;;;;;;12.65;64.98;98561.50;5009641;28;20087;-77
2022/05/29 08:43:13;;;;;;;7.35;3.35;;;;;;;12.72;64.94;98558.56;5014411;28;20370;-77
2022/05/29 08:45:39;;;;;;;5.18;2.72;;;;;;;12.73;64.45;98547.56;5006773;28;20026;-77
2022/05/29 08:48:05;;;;;;;7.28;3.00;;;;;;;12.66;65.38;98555.09;5011244;28;20547;-76
2022/05/29 08:50:42;;;;;;;8.93;2.97;;;;;;;12.82;64.24;98556.66;5006867;28;20033;-77
2022/05/29 08:53:32;;;;;;;6.38;2.35;;;;;;;12.86;63.56;98553.47;5003230;28;20034;-76
2022/05/29 08:56:08;;;;;;;12.05;2.92;;;;;;;13.01;63.61;98556.94;5006636;28;20069;-77
2022/05/29 08:58:43;;;;;;;5.25;2.80;;;;;;;13.03;63.54;98540.56;5008163;28;20628;-77
2022/05/29 09:01:23;;;;;;;6.10;2.60;;;;;;;13.30;63.22;98543.75;5010501;28;20030;-77
2022/05/29 09:03:57;;;;;;;5.47;2.60;;;;;;;13.28;63.27;98546.69;5010481;28;20045;-77
2022/05/29 09:06:37;;;;;;;6.45;2.25;;;;;;;13.34;62.95;98553.66;5009045;28;20025;-77
2022/05/29 09:09:13;;;;;;;5.38;2.55;;;;;;;13.39;62.97;98547.44;5006314;28;20034;-77
2022/05/29 09:11:54;;;;;;;10.23;3.25;;;;;;;13.43;63.05;98549.31;5007808;28;20462;-76
2022/05/29 09:14:23;;;;;;;8.95;2.80;;;;;;;13.79;62.30;98541.91;5009605;28;20312;-77
2022/05/29 09:17:02;;;;;;;8.27;3.55;;;;;;;13.79;61.75;98519.66;5007363;28;20440;-77
2022/05/29 09:19:38;;;;;;;5.80;2.22;;;;;;;13.78;62.28;98539.53;5008761;28;20402;-77
2022/05/29 09:22:15;;;;;;;6.00;2.33;;;;;;;13.68;62.29;98544.91;5009828;28;20030;-77
2022/05/29 09:24:53;;;;;;;5.97;2.40;;;;;;;13.36;62.61;98546.16;5008197;28;20037;-77
2022/05/29 09:27:18;;;;;;;6.43;2.85;;;;;;;13.38;62.42;98543.19;5003166;28;20504;-77
2022/05/29 09:29:44;;;;;;;6.63;2.35;;;;;;;13.17;61.13;98539.75;5007403;28;20038;-77
2022/05/29 09:32:20;;;;;;;4.85;2.13;;;;;;;13.28;62.52;98527.94;5003073;28;20038;-77
2022/05/29 09:34:56;;;;;;;4.88;2.35;;;;;;;13.26;62.68;98526.59;5011158;28;20478;-77
2022/05/29 09:37:41;;;;;;;6.30;2.13;;;;;;;13.30;62.40;98516.94;5005858;28;20044;-77
2022/05/29 09:40:16;;;;;;;4.63;1.95;;;;;;;13.42;62.04;98520.91;5002517;28;20030;-77
2022/05/29 09:42:43;;;;;;;6.50;2.03;;;;;;;13.43;62.32;98522.50;5004078;28;20113;-77
2022/05/29 09:45:32;;;;;;;7.82;2.30;;;;;;;13.50;61.78;98516.84;5009360;28;20366;-77
2022/05/29 09:50:53;;;;;;;3.97;2.13;;;;;;;13.72;60.98;98511.09;5006606;28;20052;-77
2022/05/29 09:53:24;;;;;;;7.75;2.10;;;;;;;13.74;61.40;98499.03;5006956;28;20033;-77
2022/05/29 09:55:54;;;;;;;7.88;2.42;;;;;;;13.94;60.17;98503.47;5008842;28;20050;-77
2022/05/29 09:58:30;;;;;;;4.93;2.13;;;;;;;13.92;60.71;98511.00;5007275;28;20017;-77
2022/05/29 10:00:58;;;;;;;;;;;;;;;14.16;60.04;98509.22;5005129;28;20380;-76
2022/05/29 10:03:58;;;;;;;2.72;1.50;;;;;;;14.21;60.20;98506.50;5005973;28;19929;-77
2022/05/29 10:06:41;;;;;;;9.75;2.13;;;;;;;14.14;59.88;98487.22;4996294;28;20041;-77
2022/05/29 10:09:16;;;;;;;3.92;1.95;;;;;;;14.47;59.19;98507.94;5005414;28;20033;-76
2022/05/29 10:11:45;;;;;;;7.60;2.47;;;;;;;14.54;59.18;98496.88;5019731;28;20438;-77
2022/05/29 10:14:43;;;;;;;5.00;2.30;;;;;;;14.53;59.19;98479.13;5001746;28;20064;-77
2022/05/29 10:17:22;;;;;;;3.13;1.67;;;;;;;14.60;59.91;98509.97;4994935;28;20041;-77
2022/05/29 10:19:48;;;;;;;4.70;2.38;;;;;;;14.46;60.13;98503.63;5009219;28;20028;-77
2022/05/29 10:22:21;;;;;;;5.05;2.40;;;;;;;14.52;59.57;98510.59;4975533;28;20116;-77
2022/05/29 10:24:47;;;;;;;7.13;3.05;;;;;;;14.54;59.12;98492.31;5009854;28;20029;-77
2022/05/29 10:27:29;;;;;;;4.90;2.40;;;;;;;14.45;59.78;98480.56;5007721;28;20026;-77
2022/05/29 10:29:59;;;;;;;5.70;2.55;;;;;;;14.53;59.54;98517.53;5007507;28;20036;-77
2022/05/29 10:32:29;;;;;;;5.65;2.60;;;;;;;14.45;60.34;98510.09;5009107;28;20121;-77
2022/05/29 10:35:28;;;;;;;9.73;2.58;;;;;;;14.11;60.29;98499.31;5005926;28;20030;-77
2022/05/29 10:37:55;;;;;;;6.38;2.38;;;;;;;14.07;60.81;98502.84;5006606;28;20034;-77
2022/05/29 10:40:27;;;;;;;6.68;3.08;;;;;;;14.14;61.24;98506.81;5007450;28;20034;-77
2022/05/29 10:42:55;;;;;;;10.50;4.15;;;;;;;14.06;61.63;98512.78;5008778;28;20037;-77
2022/05/29 10:45:25;;;;;;;9.07;2.55;;;;;;;14.19;61.64;98508.69;5006641;28;20060;-77
2022/05/29 10:48:09;;;;;;;8.45;2.95;;;;;;;14.22;61.38;98497.34;5008508;28;20076;-77
2022/05/29 10:50:48;;;;;;;7.55;2.50;;;;;;;14.27;61.12;98508.06;5009966;28;20036;-77
2022/05/29 10:53:42;;;;;;;6.25;2.53;;;;;;;14.12;61.86;98495.56;5005599;28;20140;-77
2022/05/29 10:56:44;;;;;;;9.73;3.90;;;;;;;14.22;61.05;98503.53;5005881;28;20033;-77
2022/05/29 10:59:55;;;;;;;6.85;2.67;;;;;;;14.26;61.01;98498.44;5004259;28;20033;-77
2022/05/29 11:05:51;;;;;;;7.15;3.53;;;;;;;14.66;58.29;98489.22;5010268;28;20083;-77
2022/05/29 11:08:44;;;;;;;5.45;2.38;;;;;;;14.79;58.34;98486.69;5007409;28;20030;-77
2022/05/29 11:11:21;;;;;;;3.90;2.45;;;;;;;14.82;58.00;98475.38;5003059;28;20456;-78
2022/05/29 11:14:02;;;;;;;5.80;2.50;;;;;;;14.89;58.65;98475.03;5007045;28;20504;-77
2022/05/29 11:16:39;;;;;;;5.80;2.20;;;;;;;14.90;58.67;98474.75;5003383;28;20537;-76
2022/05/29 11:19:23;;;;;;;8.75;2.38;;;;;;;15.02;58.55;98477.03;5004674;28;20034;-77
2022/05/29 11:21:59;;;;;;;5.47;2.17;;;;;;;14.99;58.82;98473.03;5004548;28;20129;-77
2022/05/29 11:24:42;;;;;;;5.18;2.67;;;;;;;14.92;59.39;98474.44;5001641;28;20038;-76
2022/05/29 11:27:25;;;;;;;4.50;2.25;;;;;;;14.83;58.99;98476.19;5009971;28;20804;-76
2022/05/29 11:30:14;;;;;;;5.43;2.20;;;;;;;14.73;59.38;98466.34;5007107;28;20029;-77
2022/05/29 11:33:18;;;;;;;7.93;1.90;;;;;;;15.03;57.66;98470.56;5005691;28;20030;-77
2022/05/29 11:36:09;;;;;;;3.28;1.58;;;;;;;15.03;58.61;98463.31;5004842;28;20026;-77
2022/05/29 11:38:43;;;;;;;7.07;2.13;;;;;;;14.99;59.09;98467.66;5001183;28;20042;-77
2022/05/29 11:41:16;;;;;;;8.48;2.65;;;;;;;14.94;59.17;98467.72;5025057;28;20026;-77
2022/05/29 11:43:56;;;;;;;3.28;1.77;;;;;;;15.19;58.17;98452.38;5008727;28;20640;-77
2022/05/29 11:52:44;;;;;;;5.50;2.75;;;;;;;15.10;59.10;98451.41;5009086;28;20373;-76
2022/05/29 11:55:20;;;;;;;5.90;2.25;;;;;;;15.00;60.77;98450.44;4999084;28;20181;-77
2022/05/29 11:58:07;;;;;;;10.13;2.58;;;;;;;14.59;60.24;98437.75;5002481;28;20433;-77
2022/05/29 12:00:51;;;;;;;9.25;3.30;;;;;;;14.57;60.28;98442.59;5004329;28;20029;-77
2022/05/29 12:03:36;;;;;;;7.20;2.35;;;;;;;14.24;58.97;98420.06;5002616;28;20537;-77
2022/05/29 12:06:15;;;;;;;13.20;2.42;;;;;;;14.30;59.34;98424.31;5017350;28;20056;-77
2022/05/29 12:09:08;;;;;;;10.82;3.17;;;;;;;14.29;59.75;98428.06;5008636;28;20497;-77
2022/05/29 12:11:57;;;;;;;156.80;33.78;;;;;;;14.30;58.87;98424.31;5010694;28;20547;-77
2022/05/29 12:14:22;;;;;;;35.88;9.55;;;;;;;14.67;59.01;98423.69;5007328;28;20025;-77
2022/05/29 12:16:53;;;;;;;22.42;5.72;;;;;;;14.86;57.89;98416.47;5016761;28;20035;-76
2022/05/29 12:19:29;;;;;;;5.13;1.83;;;;;;;14.69;59.01;98413.44;5008813;28;20117;-76
2022/05/29 12:22:00;;;;;;;4.03;1.67;;;;;;;15.10;58.33;98417.25;5023826;28;20368;-76
2022/05/29 12:24:29;;;;;;;1.50;1.40;;;;;;;15.33;58.07;98415.63;5009322;28;20068;-76
2022/05/29 12:27:02;;;;;;;4.13;1.35;;;;;;;15.46;56.89;98402.31;5005420;28;21045;-77